Time;durP1;ratioP1;P1;durP2;ratioP2;P2;SDS_P1;SDS_P2;PMS_P1;PMS_P2;Temp;Humidity;BMP_temperature;BMP_pressure;BME280_temperature;BME280_humidity;BME280_pressure;Samples;Min_cycle;Max_cycle;Signal;HPM_P1;HPM_P2
2020/12/31 00:02:23;;;;;;;17.85;11.25;;;3.80;99.90;;;;;;4961267;28;20055;-90
2020/12/31 00:04:51;;;;;;;20.80;12.75;;;3.80;99.90;;;;;;4980447;28;20050;-91
2020/12/31 00:07:18;;;;;;;17.23;11.93;;;3.80;99.90;;;;;;4967239;28;20500;-92
2020/12/31 00:09:44;;;;;;;17.00;10.85;;;3.80;99.90;;;;;;4987956;28;20050;-91
2020/12/31 00:12:10;;;;;;;17.30;11.02;;;3.80;99.90;;;;;;4976173;28;20056;-91
2020/12/31 00:14:38;;;;;;;17.13;11.63;;;3.70;99.90;;;;;;4982909;28;20038;-91
2020/12/31 00:17:11;;;;;;;16.13;10.27;;;3.70;99.90;;;;;;4968612;28;20051;-92
2020/12/31 00:19:37;;;;;;;18.48;11.10;;;3.80;99.90;;;;;;4974108;28;20039;-91
2020/12/31 00:22:03;;;;;;;16.48;10.68;;;3.80;99.90;;;;;;4957774;28;20043;-90
2020/12/31 00:24:39;;;;;;;14.60;9.70;;;3.80;99.90;;;;;;4974379;28;20061;-90
2020/12/31 00:27:09;;;;;;;15.07;9.35;;;3.80;99.90;;;;;;4973931;28;20049;-90
2020/12/31 00:29:35;;;;;;;16.15;10.32;;;3.80;99.90;;;;;;4989891;28;20511;-90
2020/12/31 00:32:01;;;;;;;14.63;9.80;;;3.80;99.90;;;;;;4999448;28;20091;-91
2020/12/31 00:34:29;;;;;;;13.50;9.18;;;3.80;99.90;;;;;;4982654;28;20108;-91
2020/12/31 00:36:56;;;;;;;15.75;9.95;;;3.80;99.90;;;;;;4988414;28;20038;-90
2020/12/31 00:39:44;;;;;;;14.27;9.75;;;3.70;99.90;;;;;;4977454;28;20141;-91
2020/12/31 00:42:13;;;;;;;14.93;9.10;;;3.70;99.90;;;;;;4995136;28;20026;-91
2020/12/31 00:44:42;;;;;;;13.88;9.43;;;3.70;99.90;;;;;;4968523;28;20144;-90
2020/12/31 00:47:08;;;;;;;13.45;9.27;;;3.70;99.90;;;;;;4995984;28;20035;-93
2020/12/31 00:49:36;;;;;;;13.55;8.63;;;3.70;99.90;;;;;;4992166;28;20042;-91
2020/12/31 00:52:06;;;;;;;14.57;9.40;;;3.70;99.90;;;;;;4980756;28;20049;-92
2020/12/31 00:54:31;;;;;;;16.95;9.50;;;3.70;99.90;;;;;;4976206;28;20039;-92
2020/12/31 00:56:57;;;;;;;14.10;8.93;;;3.70;99.90;;;;;;4985528;28;20036;-92
2020/12/31 00:59:23;;;;;;;14.38;9.13;;;3.70;99.90;;;;;;4995995;28;20042;-91
2020/12/31 01:01:48;;;;;;;12.75;8.43;;;3.70;99.90;;;;;;4981314;28;20066;-91
2020/12/31 01:04:14;;;;;;;17.13;9.68;;;3.70;99.90;;;;;;4989029;28;20129;-91
2020/12/31 01:06:40;;;;;;;16.33;10.05;;;3.70;99.90;;;;;;4979839;28;20487;-91
2020/12/31 01:09:07;;;;;;;15.48;8.60;;;3.70;99.90;;;;;;4968255;28;20054;-92
2020/12/31 01:11:38;;;;;;;11.88;8.38;;;3.70;99.90;;;;;;4987294;28;20500;-91
2020/12/31 01:14:15;;;;;;;15.27;8.80;;;3.70;99.90;;;;;;4982562;28;20042;-90
2020/12/31 01:16:40;;;;;;;13.60;8.23;;;3.70;99.90;;;;;;4987237;28;20035;-91
2020/12/31 01:19:06;;;;;;;15.68;9.50;;;3.70;99.90;;;;;;4982648;28;20481;-91
2020/12/31 01:21:32;;;;;;;14.18;9.35;;;3.70;99.90;;;;;;4980405;28;20031;-92
2020/12/31 01:23:57;;;;;;;11.63;8.70;;;3.70;99.90;;;;;;4972968;28;20059;-90
2020/12/31 01:26:33;;;;;;;14.38;9.00;;;3.70;99.90;;;;;;4977500;28;20039;-91
2020/12/31 01:29:04;;;;;;;14.45;9.13;;;3.70;99.90;;;;;;4984213;28;20495;-90
2020/12/31 01:31:30;;;;;;;13.30;9.13;;;3.70;99.90;;;;;;4974454;28;20067;-90
2020/12/31 01:33:57;;;;;;;14.55;9.43;;;3.60;99.90;;;;;;4990115;28;20066;-91
2020/12/31 01:36:25;;;;;;;14.70;9.20;;;3.60;99.90;;;;;;4961655;28;20053;-91
2020/12/31 01:38:51;;;;;;;15.32;10.68;;;3.60;99.90;;;;;;4985525;28;20055;-89
2020/12/31 01:41:23;;;;;;;18.30;9.90;;;3.60;99.90;;;;;;4976857;28;20026;-91
2020/12/31 01:44:07;;;;;;;12.43;8.77;;;3.60;99.90;;;;;;4977095;28;20045;-90
2020/12/31 01:46:34;;;;;;;;;;;3.60;99.90;;;;;;4979009;28;20110;-90
2020/12/31 01:49:03;;;;;;;17.05;10.15;;;3.50;99.90;;;;;;4977366;28;19906;-90
2020/12/31 01:51:33;;;;;;;13.23;9.70;;;3.50;99.90;;;;;;4978396;28;20468;-91
2020/12/31 01:53:59;;;;;;;13.55;9.35;;;3.50;99.90;;;;;;4976547;28;20086;-89
2020/12/31 01:56:50;;;;;;;14.35;10.52;;;3.60;99.90;;;;;;4977112;28;20493;-89
2020/12/31 01:59:17;;;;;;;17.27;11.15;;;3.50;99.90;;;;;;4977383;28;20035;-91
2020/12/31 02:01:42;;;;;;;16.60;10.98;;;3.50;99.90;;;;;;4976850;28;20038;-90
2020/12/31 02:04:08;;;;;;;18.50;12.60;;;3.50;99.90;;;;;;4976696;28;20070;-90
2020/12/31 02:06:41;;;;;;;18.13;13.02;;;3.60;99.90;;;;;;4960975;28;20133;-90
2020/12/31 02:09:11;;;;;;;22.33;16.05;;;3.50;99.90;;;;;;4962147;28;20039;-91
2020/12/31 02:11:40;;;;;;;22.85;15.30;;;3.50;99.90;;;;;;4961051;28;20081;-90
2020/12/31 02:14:06;;;;;;;23.30;15.55;;;3.50;99.90;;;;;;4976614;28;20495;-90
2020/12/31 02:16:38;;;;;;;23.70;16.88;;;3.50;99.90;;;;;;4976648;28;20050;-90
2020/12/31 02:19:25;;;;;;;24.05;17.30;;;3.50;99.90;;;;;;4978078;28;20130;-89
2020/12/31 02:21:57;;;;;;;25.48;17.20;;;3.40;99.90;;;;;;4992576;28;20042;-89
2020/12/31 02:24:23;;;;;;;28.20;18.17;;;3.40;99.90;;;;;;4997759;28;20121;-88
2020/12/31 02:26:49;;;;;;;28.90;18.95;;;3.40;99.90;;;;;;4981215;28;20042;-89
2020/12/31 02:29:19;;;;;;;31.05;20.52;;;3.40;99.90;;;;;;4995859;28;20070;-89
2020/12/31 02:31:47;;;;;;;28.80;19.10;;;3.40;99.90;;;;;;4996391;28;20046;-90
2020/12/31 02:34:24;;;;;;;28.13;20.10;;;3.40;99.90;;;;;;4982647;28;20045;-89
2020/12/31 02:36:52;;;;;;;31.95;21.55;;;3.30;99.90;;;;;;4990741;28;20062;-89
2020/12/31 02:39:17;;;;;;;25.58;18.13;;;3.30;99.90;;;;;;4963688;28;20074;-89
2020/12/31 02:41:44;;;;;;;25.13;18.50;;;3.30;99.90;;;;;;4976209;28;20092;-90
2020/12/31 02:44:10;;;;;;;23.35;15.18;;;3.30;99.90;;;;;;4978027;28;20062;-90
2020/12/31 02:46:36;;;;;;;21.60;15.70;;;3.30;99.90;;;;;;4976633;28;20027;-91
2020/12/31 02:49:03;;;;;;;21.30;14.50;;;3.30;99.90;;;;;;4976102;28;20045;-89
2020/12/31 02:51:29;;;;;;;23.95;15.80;;;3.30;99.90;;;;;;4975849;28;20030;-90
2020/12/31 02:53:55;;;;;;;22.20;15.73;;;3.30;99.90;;;;;;4976535;28;20038;-90
2020/12/31 02:56:27;;;;;;;22.27;16.13;;;3.30;99.90;;;;;;4975816;28;20428;-90
2020/12/31 02:58:53;;;;;;;21.05;14.98;;;3.30;99.90;;;;;;4976150;28;20039;-90
2020/12/31 03:01:22;;;;;;;19.83;13.73;;;3.30;99.90;;;;;;4959812;28;20050;-90
2020/12/31 03:03:51;;;;;;;20.38;14.73;;;3.30;99.90;;;;;;4959104;28;20051;-90
2020/12/31 03:06:17;;;;;;;17.77;12.57;;;3.30;99.90;;;;;;4975431;28;20035;-89
2020/12/31 03:08:43;;;;;;;17.58;12.32;;;3.30;99.90;;;;;;4975658;28;20035;-89
2020/12/31 03:11:21;;;;;;;16.08;12.07;;;3.30;99.90;;;;;;4974523;28;20037;-90
2020/12/31 03:13:49;;;;;;;17.95;11.98;;;3.40;99.90;;;;;;4974593;28;20109;-89
2020/12/31 03:16:16;;;;;;;18.20;12.95;;;3.40;99.90;;;;;;4975362;28;20042;-89
2020/12/31 03:18:42;;;;;;;19.75;13.57;;;3.40;99.90;;;;;;4959673;28;20764;-89
2020/12/31 03:21:09;;;;;;;19.23;13.38;;;3.40;99.90;;;;;;4975314;28;20191;-89
2020/12/31 03:23:35;;;;;;;18.17;12.52;;;3.40;99.90;;;;;;4959469;28;20041;-89
2020/12/31 03:26:00;;;;;;;17.90;12.68;;;3.40;99.90;;;;;;4975766;28;20039;-88
2020/12/31 03:28:26;;;;;;;18.95;13.15;;;3.40;99.90;;;;;;4974769;28;20098;-89
2020/12/31 03:30:52;;;;;;;18.70;13.52;;;3.40;99.90;;;;;;4975140;28;20435;-89
2020/12/31 03:33:18;;;;;;;20.05;13.68;;;3.40;99.90;;;;;;4974863;28;20517;-89
2020/12/31 03:35:46;;;;;;;17.88;13.10;;;3.40;99.90;;;;;;4975201;28;20034;-89
2020/12/31 03:38:14;;;;;;;15.73;11.20;;;3.40;99.90;;;;;;4974956;28;20037;-90
2020/12/31 03:40:44;;;;;;;17.02;12.93;;;3.40;99.90;;;;;;4959126;28;20066;-89
2020/12/31 03:43:13;;;;;;;17.00;12.23;;;3.40;99.90;;;;;;4975669;28;20090;-89
2020/12/31 03:45:43;;;;;;;17.15;11.43;;;3.40;99.90;;;;;;4975182;28;20042;-89
2020/12/31 03:48:10;;;;;;;14.23;11.13;;;3.40;99.90;;;;;;4975313;28;20054;-90
2020/12/31 03:50:40;;;;;;;16.02;11.55;;;3.40;99.90;;;;;;4958943;28;20046;-89
2020/12/31 03:53:06;;;;;;;15.63;10.82;;;3.40;99.90;;;;;;4974077;28;20562;-90
2020/12/31 03:55:32;;;;;;;14.85;10.45;;;3.40;99.90;;;;;;4975467;28;20063;-89
2020/12/31 03:58:00;;;;;;;13.15;9.40;;;3.40;99.90;;;;;;4975074;28;20030;-89
2020/12/31 04:00:30;;;;;;;13.38;9.95;;;3.40;99.90;;;;;;4975057;28;20058;-90
2020/12/31 04:03:00;;;;;;;15.82;10.05;;;3.40;99.90;;;;;;4983113;28;20051;-90
2020/12/31 04:05:26;;;;;;;12.93;10.25;;;3.40;99.90;;;;;;4977701;28;20038;-90
2020/12/31 04:07:53;;;;;;;12.35;8.45;;;3.40;99.90;;;;;;4977869;28;20038;-88
2020/12/31 04:10:19;;;;;;;14.18;9.13;;;3.50;99.90;;;;;;4978026;28;20046;-90
2020/12/31 04:12:44;;;;;;;13.27;8.93;;;3.40;99.90;;;;;;4994777;28;20042;-89
2020/12/31 04:15:10;;;;;;;14.43;9.93;;;3.40;99.90;;;;;;4977563;28;20046;-88
2020/12/31 04:17:36;;;;;;;11.93;8.95;;;3.40;99.90;;;;;;4977205;28;20026;-88
2020/12/31 04:20:05;;;;;;;12.23;8.85;;;3.40;99.90;;;;;;4977209;28;20049;-88
2020/12/31 04:22:31;;;;;;;11.50;8.30;;;3.40;99.90;;;;;;4977933;28;20041;-90
2020/12/31 04:24:56;;;;;;;14.63;9.07;;;3.40;99.90;;;;;;4977296;28;20034;-89
2020/12/31 04:27:23;;;;;;;12.23;8.70;;;3.40;99.90;;;;;;4995934;28;20026;-89
2020/12/31 04:29:50;;;;;;;13.82;9.02;;;3.30;99.90;;;;;;4977758;28;20030;-89
2020/12/31 04:32:20;;;;;;;11.80;9.50;;;3.30;99.90;;;;;;4961704;28;20062;-88
2020/12/31 04:34:46;;;;;;;14.20;9.07;;;3.30;99.90;;;;;;4977508;28;20390;-88
2020/12/31 04:37:12;;;;;;;13.27;9.63;;;3.30;99.90;;;;;;4977408;28;20027;-88
2020/12/31 04:39:37;;;;;;;13.18;9.15;;;3.30;99.90;;;;;;4977276;28;20114;-87
2020/12/31 04:42:03;;;;;;;12.82;8.45;;;3.40;99.90;;;;;;4977387;28;20038;-88
2020/12/31 04:44:29;;;;;;;12.95;8.85;;;3.30;99.90;;;;;;4977593;28;20137;-87
2020/12/31 04:46:57;;;;;;;13.05;9.07;;;3.40;99.90;;;;;;4976944;28;20065;-87
2020/12/31 04:49:42;;;;;;;13.80;9.85;;;3.40;99.90;;;;;;4977291;28;20045;-89
2020/12/31 04:52:08;;;;;;;13.13;8.68;;;3.30;99.90;;;;;;4977365;28;20029;-90
2020/12/31 04:54:40;;;;;;;11.73;8.98;;;3.30;99.90;;;;;;4977602;28;20121;-89
2020/12/31 04:57:06;;;;;;;13.20;8.63;;;3.40;99.90;;;;;;4977746;28;20070;-88
2020/12/31 04:59:33;;;;;;;12.18;8.27;;;3.40;99.90;;;;;;4994834;28;20471;-88
2020/12/31 05:06:54;;;;;;;11.43;7.88;;;3.40;99.90;;;;;;4969323;28;20066;-88
2020/12/31 05:09:22;;;;;;;12.27;8.75;;;3.30;99.90;;;;;;4923117;29;20054;-89
2020/12/31 05:11:52;;;;;;;12.85;8.75;;;3.40;99.90;;;;;;4955261;29;20040;-89
2020/12/31 05:14:36;;;;;;;14.38;8.18;;;3.30;99.90;;;;;;4939664;29;20106;-89
2020/12/31 05:17:19;;;;;;;11.32;8.13;;;3.30;99.90;;;;;;4944080;29;20096;-88
2020/12/31 05:19:45;;;;;;;11.88;9.02;;;3.30;99.90;;;;;;4942372;29;20047;-89
2020/12/31 05:22:16;;;;;;;12.15;9.00;;;3.30;99.90;;;;;;4942004;29;20396;-89
2020/12/31 05:24:44;;;;;;;14.07;9.95;;;3.30;99.90;;;;;;4940334;29;20039;-89
2020/12/31 05:27:30;;;;;;;13.48;9.45;;;3.30;99.90;;;;;;4942284;29;20046;-89
2020/12/31 05:30:10;;;;;;;12.98;8.82;;;3.30;99.90;;;;;;4959357;29;20035;-90
2020/12/31 05:32:41;;;;;;;12.05;8.10;;;3.30;99.90;;;;;;4958451;29;20102;-88
2020/12/31 05:35:12;;;;;;;13.13;8.70;;;3.30;99.90;;;;;;4925885;29;20050;-88
2020/12/31 05:37:39;;;;;;;12.45;8.95;;;3.30;99.90;;;;;;4942506;29;20383;-89
2020/12/31 05:40:10;;;;;;;14.25;9.60;;;3.30;99.90;;;;;;4942399;29;20083;-89
2020/12/31 05:42:40;;;;;;;14.27;9.05;;;3.20;99.90;;;;;;4941928;29;20030;-89
2020/12/31 05:45:18;;;;;;;12.38;8.35;;;3.20;99.90;;;;;;4942576;29;20047;-89
2020/12/31 05:47:50;;;;;;;12.13;8.05;;;3.20;99.90;;;;;;4942515;29;20067;-89
2020/12/31 05:50:21;;;;;;;10.02;7.18;;;3.30;99.90;;;;;;4942253;29;20460;-89
2020/12/31 05:52:47;;;;;;;12.82;7.53;;;3.20;99.90;;;;;;4942194;29;20087;-89
2020/12/31 05:55:19;;;;;;;10.30;6.90;;;3.30;99.90;;;;;;4941846;29;20058;-90
2020/12/31 05:57:52;;;;;;;12.25;7.80;;;3.30;99.90;;;;;;4926383;29;20130;-89
2020/12/31 06:00:29;;;;;;;12.00;7.20;;;3.20;99.90;;;;;;4958987;29;20148;-89
2020/12/31 06:03:00;;;;;;;10.18;7.10;;;3.20;99.90;;;;;;4934894;29;20071;-89
2020/12/31 06:05:30;;;;;;;12.43;8.43;;;3.20;99.90;;;;;;4925972;29;20612;-89
2020/12/31 06:08:00;;;;;;;12.43;7.38;;;3.20;99.90;;;;;;4954700;28;20047;-88
2020/12/31 06:10:29;;;;;;;11.80;7.68;;;3.20;99.90;;;;;;4960787;28;20039;-88
2020/12/31 06:13:03;;;;;;;11.77;8.13;;;3.20;99.90;;;;;;4960662;28;20039;-88
2020/12/31 06:15:37;;;;;;;10.02;7.28;;;3.20;99.90;;;;;;4960655;28;20074;-88
2020/12/31 06:18:06;;;;;;;9.60;6.35;;;3.20;99.90;;;;;;4962074;28;20552;-88
2020/12/31 06:20:39;;;;;;;10.75;6.88;;;3.20;99.90;;;;;;4978207;28;20039;-89
2020/12/31 06:23:09;;;;;;;8.75;6.15;;;3.20;99.90;;;;;;4943637;28;20039;-88
2020/12/31 06:25:36;;;;;;;13.70;6.47;;;3.20;99.90;;;;;;4977836;28;20031;-89
2020/12/31 06:28:08;;;;;;;11.38;6.82;;;3.20;99.90;;;;;;4977200;28;20041;-88
2020/12/31 06:30:35;;;;;;;9.77;6.38;;;3.20;99.90;;;;;;4976975;28;20470;-89
2020/12/31 06:33:18;;;;;;;8.75;5.80;;;3.20;99.90;;;;;;4958367;28;20063;-89
2020/12/31 06:35:53;;;;;;;10.23;6.25;;;3.20;99.90;;;;;;4943471;28;20050;-89
2020/12/31 06:38:48;;;;;;;8.32;5.93;;;3.20;99.90;;;;;;4974599;28;20035;-89
2020/12/31 06:41:33;;;;;;;10.38;6.22;;;3.20;99.90;;;;;;4969773;28;20047;-89
2020/12/31 06:44:15;;;;;;;9.52;5.20;;;3.10;99.90;;;;;;4959408;28;20475;-90
2020/12/31 06:46:46;;;;;;;8.50;5.68;;;3.20;99.90;;;;;;4960298;28;20057;-90
2020/12/31 06:49:15;;;;;;;8.40;5.65;;;3.20;99.90;;;;;;4977397;28;20218;-89
2020/12/31 06:51:41;;;;;;;8.40;5.55;;;3.20;99.90;;;;;;4977033;28;20038;-89
2020/12/31 06:54:08;;;;;;;9.00;5.95;;;3.20;99.90;;;;;;4975857;28;20039;-88
2020/12/31 06:56:48;;;;;;;9.00;6.13;;;3.20;99.90;;;;;;4959702;28;20039;-88
2020/12/31 06:59:38;;;;;;;9.57;6.03;;;3.20;99.90;;;;;;4962017;28;20053;-89
2020/12/31 07:02:10;;;;;;;8.73;5.47;;;3.20;99.90;;;;;;4971013;28;20042;-88
2020/12/31 07:04:39;;;;;;;7.80;5.35;;;3.20;99.90;;;;;;4978719;28;20015;-90
2020/12/31 07:07:19;;;;;;;10.65;6.07;;;3.20;99.90;;;;;;4976071;28;20055;-90
2020/12/31 07:10:01;;;;;;;8.77;5.70;;;3.20;99.90;;;;;;4947048;29;20039;-89
2020/12/31 07:12:45;;;;;;;7.78;5.03;;;3.20;99.90;;;;;;4957651;29;20624;-89
2020/12/31 07:15:12;;;;;;;8.10;5.22;;;3.20;99.90;;;;;;4940562;29;20027;-89
2020/12/31 07:17:41;;;;;;;8.68;5.00;;;3.20;99.90;;;;;;4940778;29;20043;-91
2020/12/31 07:20:10;;;;;;;9.60;5.43;;;3.20;99.90;;;;;;4940258;29;20039;-89
2020/12/31 07:22:43;;;;;;;8.52;4.82;;;3.20;99.90;;;;;;4940141;29;20036;-89
2020/12/31 07:25:14;;;;;;;7.35;5.05;;;3.20;99.90;;;;;;4940397;29;20504;-89
2020/12/31 07:27:42;;;;;;;6.05;3.95;;;3.20;99.90;;;;;;4940849;29;20034;-89
2020/12/31 07:30:07;;;;;;;8.40;3.95;;;3.20;99.90;;;;;;4939890;29;20042;-89
2020/12/31 07:32:52;;;;;;;8.13;4.80;;;3.30;99.90;;;;;;4940084;29;20039;-89
2020/12/31 07:35:23;;;;;;;11.52;6.25;;;3.20;99.90;;;;;;4954962;29;20043;-89
2020/12/31 07:38:05;;;;;;;9.02;4.78;;;3.20;99.90;;;;;;4956917;28;20035;-89
2020/12/31 07:40:36;;;;;;;9.23;4.97;;;3.20;99.90;;;;;;4956805;29;20508;-90
2020/12/31 07:43:03;;;;;;;8.05;4.95;;;3.20;99.90;;;;;;4939984;29;20042;-88
2020/12/31 07:45:29;;;;;;;8.13;4.53;;;3.10;99.90;;;;;;4939469;29;20050;-89
2020/12/31 07:47:56;;;;;;;6.88;4.32;;;3.10;99.90;;;;;;4923793;29;20134;-88
2020/12/31 07:50:27;;;;;;;7.57;3.90;;;3.20;99.90;;;;;;4957158;29;20039;-88
2020/12/31 07:52:55;;;;;;;6.97;3.72;;;3.10;99.90;;;;;;4956573;29;20054;-88
2020/12/31 07:55:21;;;;;;;6.35;3.75;;;3.10;99.90;;;;;;4939965;29;20039;-88
2020/12/31 07:57:48;;;;;;;6.40;3.75;;;3.10;99.90;;;;;;4957503;29;20114;-88
2020/12/31 08:00:20;;;;;;;7.10;3.53;;;3.10;99.90;;;;;;4923310;29;20047;-88
2020/12/31 08:02:57;;;;;;;6.72;3.42;;;3.10;99.90;;;;;;4952486;29;20095;-88
2020/12/31 08:05:36;;;;;;;5.47;3.30;;;3.10;99.90;;;;;;4953736;29;20488;-89
2020/12/31 08:08:03;;;;;;;6.03;3.40;;;3.10;99.90;;;;;;4922383;28;20051;-89
2020/12/31 08:10:36;;;;;;;7.15;3.90;;;3.10;99.90;;;;;;4958714;28;20392;-88
2020/12/31 08:13:07;;;;;;;9.45;4.15;;;3.10;99.90;;;;;;4959023;28;20035;-88
2020/12/31 08:15:35;;;;;;;6.85;3.83;;;3.10;99.90;;;;;;4975955;28;20616;-88
2020/12/31 08:18:02;;;;;;;5.65;3.22;;;3.10;99.90;;;;;;4959038;28;20134;-88
2020/12/31 08:20:33;;;;;;;5.88;3.20;;;3.20;99.90;;;;;;4958782;28;20125;-87
2020/12/31 08:23:04;;;;;;;4.88;2.67;;;3.20;99.90;;;;;;4958674;28;20097;-88
2020/12/31 08:25:42;;;;;;;4.40;2.80;;;3.20;99.90;;;;;;4958712;28;20054;-89
2020/12/31 08:28:08;;;;;;;6.45;3.38;;;3.20;99.90;;;;;;4958483;28;20125;-88
2020/12/31 08:30:45;;;;;;;4.80;3.30;;;3.20;99.90;;;;;;4957958;28;20499;-89
2020/12/31 08:33:25;;;;;;;4.20;2.47;;;3.20;99.90;;;;;;4958382;28;20059;-88
2020/12/31 08:35:54;;;;;;;4.72;2.92;;;3.20;99.90;;;;;;4942090;28;20069;-88
2020/12/31 08:38:26;;;;;;;6.05;2.70;;;3.20;99.90;;;;;;4957655;28;20379;-89
2020/12/31 08:40:57;;;;;;;6.00;3.15;;;3.30;99.90;;;;;;4973913;28;20047;-88
2020/12/31 08:43:43;;;;;;;5.63;3.30;;;3.30;99.90;;;;;;4957391;28;20109;-89
2020/12/31 08:46:18;;;;;;;5.35;3.42;;;3.30;99.90;;;;;;4957224;28;20097;-88
2020/12/31 08:48:54;;;;;;;6.07;3.55;;;3.30;99.90;;;;;;4958632;28;20090;-88
2020/12/31 08:51:28;;;;;;;5.97;3.63;;;3.30;99.90;;;;;;4979035;28;20031;-89
2020/12/31 08:53:57;;;;;;;;;;;3.30;99.90;;;;;;4962376;28;20046;-89
2020/12/31 08:56:41;;;;;;;4.43;2.85;;;3.30;99.90;;;;;;4962004;28;19906;-89
2020/12/31 08:59:19;;;;;;;5.10;2.97;;;3.30;99.90;;;;;;4962452;28;20062;-89
2020/12/31 09:01:46;;;;;;;5.63;3.13;;;3.30;99.90;;;;;;4961749;28;20031;-89
2020/12/31 09:04:18;;;;;;;5.32;2.97;;;3.40;99.90;;;;;;4960086;28;20121;-89
2020/12/31 09:06:51;;;;;;;5.60;3.20;;;3.40;99.90;;;;;;4967258;28;20039;-90
2020/12/31 09:09:25;;;;;;;5.05;2.55;;;3.40;99.90;;;;;;4969344;28;20034;-89
2020/12/31 09:12:10;;;;;;;5.15;3.05;;;3.40;99.90;;;;;;4979071;28;20062;-87
2020/12/31 09:14:38;;;;;;;6.55;3.20;;;3.40;99.90;;;;;;4938086;28;20038;-88
2020/12/31 09:17:40;;;;;;;5.00;3.42;;;3.40;99.90;;;;;;4943174;28;20043;-88
2020/12/31 09:20:17;;;;;;;7.63;3.80;;;3.50;99.90;;;;;;4884924;29;20051;-88
2020/12/31 09:22:43;;;;;;;4.68;3.15;;;3.50;99.90;;;;;;4954410;28;20038;-87
2020/12/31 09:25:10;;;;;;;6.43;3.85;;;3.60;99.90;;;;;;4959589;28;20379;-88
2020/12/31 09:27:37;;;;;;;6.60;3.88;;;3.60;99.90;;;;;;4959141;28;20031;-89
2020/12/31 09:30:06;;;;;;;5.28;3.55;;;3.60;99.90;;;;;;4959918;28;20045;-90
2020/12/31 09:32:40;;;;;;;7.80;5.47;;;3.60;99.90;;;;;;4959974;28;20049;-90
2020/12/31 09:35:17;;;;;;;9.52;4.88;;;3.60;99.90;;;;;;4957721;28;20035;-92
2020/12/31 09:37:58;;;;;;;7.32;5.25;;;3.60;99.90;;;;;;4959336;28;20042;-90
2020/12/31 09:40:46;;;;;;;8.60;5.32;;;3.60;99.90;;;;;;4959501;28;20051;-90
2020/12/31 09:43:25;;;;;;;8.02;5.00;;;3.50;99.90;;;;;;4976751;28;20388;-90
2020/12/31 09:45:50;;;;;;;8.27;5.28;;;3.60;99.90;;;;;;4960319;28;20039;-89
2020/12/31 09:48:36;;;;;;;7.63;4.95;;;3.60;99.90;;;;;;4960755;28;20131;-88
2020/12/31 09:51:07;;;;;;;8.02;5.03;;;3.60;99.90;;;;;;4954597;28;20042;-89
2020/12/31 09:53:36;;;;;;;8.80;5.85;;;3.50;99.90;;;;;;4940440;29;20031;-91
2020/12/31 09:56:10;;;;;;;9.15;5.03;;;3.50;99.90;;;;;;4923680;29;20047;-90
2020/12/31 09:58:41;;;;;;;7.07;4.72;;;3.50;99.90;;;;;;4938440;29;20035;-91
2020/12/31 10:01:14;;;;;;;8.98;6.43;;;3.50;99.90;;;;;;4954185;28;20031;-90
2020/12/31 10:03:48;;;;;;;8.43;6.20;;;3.50;99.90;;;;;;4959525;28;20039;-89
2020/12/31 10:06:25;;;;;;;9.02;6.32;;;3.50;99.90;;;;;;4959287;28;20034;-91
2020/12/31 10:08:58;;;;;;;9.98;6.22;;;3.50;99.90;;;;;;4940266;28;20058;-92
2020/12/31 10:11:28;;;;;;;11.23;7.95;;;3.50;99.90;;;;;;4924204;29;20532;-89
2020/12/31 10:14:16;;;;;;;10.18;7.22;;;3.50;99.90;;;;;;4957053;29;20122;-90
2020/12/31 10:16:49;;;;;;;10.88;7.20;;;3.50;99.90;;;;;;4939411;29;20492;-90
2020/12/31 10:19:17;;;;;;;9.45;6.68;;;3.50;99.90;;;;;;4939620;29;20126;-91
2020/12/31 10:21:47;;;;;;;9.50;6.22;;;3.60;99.90;;;;;;4939924;29;20045;-88
2020/12/31 10:24:17;;;;;;;7.88;5.63;;;3.60;99.90;;;;;;4957267;29;20031;-90
2020/12/31 10:26:46;;;;;;;9.30;5.60;;;3.60;99.90;;;;;;4940381;29;20132;-89
2020/12/31 10:29:18;;;;;;;9.05;6.35;;;3.70;99.90;;;;;;4924815;29;20047;-90
2020/12/31 10:32:11;;;;;;;8.30;5.88;;;3.70;99.90;;;;;;4935640;29;20043;-90
2020/12/31 10:34:37;;;;;;;9.15;6.32;;;3.70;99.90;;;;;;4939272;29;20043;-88
2020/12/31 10:37:03;;;;;;;9.80;6.53;;;3.80;99.90;;;;;;4955967;29;20547;-90
2020/12/31 10:39:37;;;;;;;9.15;6.50;;;3.80;99.90;;;;;;4956645;29;20043;-90
2020/12/31 10:42:03;;;;;;;8.23;6.43;;;3.80;99.90;;;;;;4939189;29;20522;-90
2020/12/31 10:44:29;;;;;;;9.10;6.20;;;3.90;99.90;;;;;;4923715;29;20038;-89
2020/12/31 10:47:03;;;;;;;8.45;6.03;;;3.90;99.90;;;;;;4939547;29;20035;-89
2020/12/31 10:49:28;;;;;;;8.25;6.30;;;3.90;99.90;;;;;;4923538;29;20039;-88
2020/12/31 10:51:57;;;;;;;8.63;6.43;;;3.90;99.90;;;;;;4938662;29;20131;-89
2020/12/31 10:54:26;;;;;;;8.65;6.40;;;3.90;99.90;;;;;;4938917;29;20035;-89
2020/12/31 10:56:54;;;;;;;9.10;6.15;;;3.90;99.90;;;;;;4923565;29;20102;-90
2020/12/31 10:59:23;;;;;;;8.07;5.85;;;3.90;99.90;;;;;;4922969;29;20046;-89
2020/12/31 11:01:56;;;;;;;7.72;5.60;;;3.90;99.90;;;;;;4962566;29;20031;-90
2020/12/31 11:04:22;;;;;;;7.30;4.95;;;3.90;99.90;;;;;;4941348;29;20035;-90
2020/12/31 11:06:55;;;;;;;8.60;5.78;;;3.90;99.90;;;;;;4957586;28;20059;-91
2020/12/31 11:09:21;;;;;;;;;;;3.90;99.90;;;;;;4954571;29;20074;-94
2020/12/31 11:11:55;;;;;;;8.05;5.60;;;4.00;99.90;;;;;;4971229;28;19899;-90
2020/12/31 11:14:20;;;;;;;8.63;5.60;;;4.00;99.90;;;;;;4930445;29;20130;-89
2020/12/31 11:17:03;;;;;;;8.98;5.90;;;4.10;99.90;;;;;;4940106;29;20039;-90
2020/12/31 11:19:29;;;;;;;7.40;5.37;;;4.10;99.90;;;;;;4955364;28;20403;-89
2020/12/31 11:21:59;;;;;;;8.80;6.13;;;4.20;99.90;;;;;;4938899;29;20039;-89
2020/12/31 11:24:32;;;;;;;7.22;5.38;;;4.30;99.90;;;;;;4922849;29;20046;-90
2020/12/31 11:27:10;;;;;;;;;;;;;;;;;;;;;
2020/12/31 11:29:39;;;;;;;7.57;5.68;;;4.60;99.90;;;;;;4957867;29;20027;-90
2020/12/31 11:32:14;;;;;;;8.82;6.07;;;4.70;99.90;;;;;;4939596;29;20524;-90
2020/12/31 11:34:42;;;;;;;8.30;6.07;;;4.90;99.90;;;;;;4938871;29;20055;-89
2020/12/31 11:37:11;;;;;;;9.52;6.80;;;5.20;99.90;;;;;;4923527;29;20035;-88
2020/12/31 11:39:40;;;;;;;8.43;6.38;;;5.40;99.90;;;;;;4940083;28;20039;-92
2020/12/31 11:42:11;;;;;;;7.35;5.63;;;5.50;99.90;;;;;;4939646;29;20045;-89
2020/12/31 11:44:37;;;;;;;8.38;6.00;;;5.70;99.90;;;;;;4939389;29;20035;-88
2020/12/31 11:47:07;;;;;;;8.00;5.88;;;6.00;99.90;;;;;;4939514;29;20044;-89
2020/12/31 11:49:43;;;;;;;8.02;5.95;;;6.10;99.90;;;;;;4957323;29;20032;-90
2020/12/31 11:52:26;;;;;;;8.15;5.43;;;6.10;99.90;;;;;;4956636;29;20039;-89
2020/12/31 11:54:53;;;;;;;7.50;5.90;;;6.00;99.90;;;;;;4939244;29;20044;-89
2020/12/31 11:57:23;;;;;;;9.50;6.78;;;5.90;99.90;;;;;;4940474;29;20100;-90
2020/12/31 11:59:54;;;;;;;8.82;6.47;;;5.80;99.90;;;;;;4956757;29;20496;-89
2020/12/31 12:02:22;;;;;;;8.27;6.63;;;5.80;99.90;;;;;;4939571;29;20125;-90
2020/12/31 12:04:48;;;;;;;10.18;6.78;;;5.80;99.90;;;;;;4939048;29;20027;-89
2020/12/31 12:07:14;;;;;;;10.55;7.97;;;5.90;99.90;;;;;;4942862;28;20051;-89
2020/12/31 12:09:43;;;;;;;8.93;6.38;;;5.80;99.90;;;;;;4941857;28;20194;-89
2020/12/31 12:12:10;;;;;;;9.68;7.82;;;5.60;99.90;;;;;;4992041;28;20089;-89
2020/12/31 12:14:39;;;;;;;10.00;8.00;;;5.50;99.90;;;;;;4994601;28;20117;-89
2020/12/31 12:17:26;;;;;;;10.20;7.95;;;5.30;99.90;;;;;;4939756;29;20380;-89
2020/12/31 12:19:52;;;;;;;9.15;6.05;;;5.30;99.90;;;;;;4939727;29;20043;-90
2020/12/31 12:22:21;;;;;;;9.30;6.70;;;5.20;99.90;;;;;;4956234;29;20451;-90
2020/12/31 12:24:49;;;;;;;8.20;6.43;;;5.00;99.90;;;;;;4947212;28;20038;-90
2020/12/31 12:27:17;;;;;;;9.93;7.63;;;4.90;99.90;;;;;;4958537;28;20098;-91
2020/12/31 12:29:52;;;;;;;10.38;7.65;;;4.80;99.90;;;;;;4956038;29;20047;-89
2020/12/31 12:32:38;;;;;;;;;;;;;;;;;;;;;
2020/12/31 12:35:08;;;;;;;13.80;9.23;;;4.70;99.90;;;;;;4946607;28;20043;-89
2020/12/31 12:37:39;;;;;;;11.80;7.90;;;4.60;99.90;;;;;;4953463;28;20375;-89
2020/12/31 12:40:07;;;;;;;10.10;8.07;;;4.60;99.90;;;;;;4959653;28;20127;-88
2020/12/31 12:42:41;;;;;;;10.75;8.10;;;4.60;99.90;;;;;;4939476;28;20038;-88
2020/12/31 12:45:12;;;;;;;10.52;8.23;;;4.60;99.90;;;;;;4955458;28;20039;-89
2020/12/31 12:47:41;;;;;;;10.95;8.32;;;4.60;99.90;;;;;;4959273;28;20043;-89
2020/12/31 12:50:10;;;;;;;11.45;8.55;;;4.60;99.90;;;;;;4958918;28;20039;-87
2020/12/31 12:52:37;;;;;;;12.32;8.68;;;4.60;99.90;;;;;;4958200;28;20141;-89
2020/12/31 12:55:20;;;;;;;11.25;8.27;;;4.60;99.90;;;;;;4949383;29;20042;-89
2020/12/31 12:57:47;;;;;;;9.90;7.18;;;4.60;99.90;;;;;;4938569;29;20103;-89
2020/12/31 13:00:14;;;;;;;11.23;8.57;;;4.60;99.90;;;;;;4923296;29;20051;-89
2020/12/31 13:02:56;;;;;;;9.63;7.45;;;4.60;99.90;;;;;;4923390;29;20055;-89
2020/12/31 13:05:46;;;;;;;10.60;7.35;;;4.70;99.90;;;;;;4954602;28;20035;-90
2020/12/31 13:08:12;;;;;;;9.73;7.18;;;4.70;99.90;;;;;;4938072;29;20511;-89
2020/12/31 13:10:42;;;;;;;11.02;7.50;;;4.60;99.90;;;;;;4936732;29;20109;-88
2020/12/31 13:13:11;;;;;;;10.07;7.45;;;4.60;99.90;;;;;;4937643;29;20039;-89
2020/12/31 13:15:41;;;;;;;9.25;6.47;;;4.70;99.90;;;;;;4938303;29;20031;-89
2020/12/31 13:18:46;;;;;;;8.77;6.70;;;4.70;99.90;;;;;;4906312;29;20062;-90